Time;durP1;ratioP1;P1;durP2;ratioP2;P2;SDS_P1;SDS_P2;PMS_P1;PMS_P2;Temp;Humidity;BMP_temperature;BMP_pressure;BME280_temperature;BME280_humidity;BME280_pressure;Samples;Min_cycle;Max_cycle;Signal;HPM_P1;HPM_P2
2023/07/21 00:02:07;;;;;;;1.60;1.50;;;17.20;64.10;;;;;;5066170;28;20653;-77
2023/07/21 00:04:35;;;;;;;1.70;1.30;;;17.20;66.20;;;;;;5066632;28;20630;-77
2023/07/21 00:07:02;;;;;;;2.90;1.70;;;17.20;66.50;;;;;;5066128;28;20649;-77
2023/07/21 00:09:29;;;;;;;1.83;1.73;;;17.20;67.20;;;;;;5065007;28;21198;-79
2023/07/21 00:11:57;;;;;;;1.30;1.20;;;17.20;67.10;;;;;;5063032;28;20663;-77
2023/07/21 00:14:24;;;;;;;1.80;1.37;;;17.20;66.70;;;;;;5053132;28;21224;-77
2023/07/21 00:16:53;;;;;;;2.70;1.60;;;17.30;66.90;;;;;;5058286;28;20666;-77
2023/07/21 00:19:20;;;;;;;1.60;1.33;;;17.40;66.10;;;;;;5066730;28;20645;-77
2023/07/21 00:21:47;;;;;;;1.53;1.43;;;17.30;66.50;;;;;;5062415;28;20656;-77
2023/07/21 00:24:14;;;;;;;1.40;1.30;;;17.40;64.40;;;;;;5058668;28;20627;-77
2023/07/21 00:26:41;;;;;;;1.20;1.10;;;17.30;64.90;;;;;;5062743;28;20664;-78
2023/07/21 00:29:10;;;;;;;1.43;1.33;;;17.30;65.00;;;;;;5067717;28;20631;-79
2023/07/21 00:31:38;;;;;;;1.23;1.13;;;17.30;65.50;;;;;;5058557;28;20657;-77
2023/07/21 00:34:08;;;;;;;1.87;1.63;;;17.30;65.50;;;;;;5058510;28;20626;-77
2023/07/21 00:36:35;;;;;;;1.30;1.20;;;17.20;65.10;;;;;;5068515;28;20657;-77
2023/07/21 00:39:03;;;;;;;1.53;1.40;;;17.20;66.70;;;;;;5066399;28;20628;-76
2023/07/21 00:41:30;;;;;;;1.27;1.17;;;17.20;66.70;;;;;;5065752;28;21088;-77
2023/07/21 00:43:56;;;;;;;1.67;1.50;;;17.10;65.20;;;;;;5067449;28;20625;-77
2023/07/21 00:46:25;;;;;;;3.87;1.87;;;17.10;65.90;;;;;;5068157;28;20736;-77
2023/07/21 00:48:52;;;;;;;4.23;1.43;;;17.00;65.80;;;;;;5064385;28;20632;-77
2023/07/21 00:51:20;;;;;;;1.90;1.80;;;17.00;66.30;;;;;;5062910;28;21029;-77
2023/07/21 00:53:48;;;;;;;4.33;2.10;;;17.00;68.30;;;;;;5066647;28;21205;-77
2023/07/21 00:56:15;;;;;;;4.23;1.63;;;17.00;67.70;;;;;;5066250;28;20681;-79
2023/07/21 00:58:42;;;;;;;2.10;1.90;;;17.00;68.80;;;;;;5067344;28;20618;-79
2023/07/21 01:01:09;;;;;;;2.97;1.33;;;17.00;70.30;;;;;;5067576;28;21166;-78
2023/07/21 01:03:39;;;;;;;2.47;1.87;;;17.00;69.40;;;;;;5067360;28;21155;-76
2023/07/21 01:06:08;;;;;;;1.80;1.40;;;17.00;70.40;;;;;;5067756;28;21241;-77
2023/07/21 01:08:35;;;;;;;5.87;1.43;;;16.90;69.90;;;;;;5065615;28;20625;-77
2023/07/21 01:11:02;;;;;;;2.67;1.40;;;16.90;70.00;;;;;;5059346;28;21214;-77
2023/07/21 01:13:31;;;;;;;2.10;1.73;;;16.90;70.00;;;;;;5066982;28;20622;-77
2023/07/21 01:16:01;;;;;;;2.10;1.73;;;16.90;70.50;;;;;;5063419;28;20668;-77
2023/07/21 01:18:29;;;;;;;2.30;1.20;;;16.90;70.50;;;;;;5054905;28;20983;-77
2023/07/21 01:20:58;;;;;;;1.50;1.40;;;16.90;70.20;;;;;;5060771;28;20697;-77
2023/07/21 01:23:36;;;;;;;1.90;1.80;;;16.90;70.20;;;;;;5058152;28;21046;-76
2023/07/21 01:26:07;;;;;;;2.00;1.80;;;16.90;71.30;;;;;;5064204;28;21256;-77
2023/07/21 01:28:35;;;;;;;1.63;1.53;;;16.90;71.30;;;;;;5059935;28;20625;-77
2023/07/21 01:31:04;;;;;;;1.30;1.20;;;16.90;69.60;;;;;;5065971;28;20668;-77
2023/07/21 01:33:32;;;;;;;4.73;2.07;;;16.90;71.20;;;;;;5066476;28;20622;-77
2023/07/21 01:36:02;;;;;;;2.90;2.57;;;16.90;71.20;;;;;;5059240;28;20653;-77
2023/07/21 01:38:30;;;;;;;1.27;1.17;;;16.80;71.20;;;;;;5065761;28;20614;-77
2023/07/21 01:40:59;;;;;;;1.80;1.70;;;16.80;70.20;;;;;;5066944;28;20662;-77
2023/07/21 01:43:27;;;;;;;1.87;1.50;;;16.80;69.60;;;;;;5065569;28;20614;-77
2023/07/21 01:45:55;;;;;;;1.70;1.47;;;16.80;70.00;;;;;;5061490;28;20653;-77
2023/07/21 01:48:24;;;;;;;3.37;2.20;;;16.80;69.20;;;;;;5066840;28;20658;-77
2023/07/21 01:50:53;;;;;;;1.63;1.37;;;16.80;70.00;;;;;;5064622;28;20677;-77
2023/07/21 01:53:24;;;;;;;3.00;1.50;;;16.80;70.50;;;;;;5064451;28;21008;-77
2023/07/21 01:56:00;;;;;;;3.20;1.90;;;16.80;71.20;;;;;;5065764;28;20641;-76
2023/07/21 01:58:33;;;;;;;2.80;2.00;;;16.70;70.20;;;;;;5064322;28;20989;-76
2023/07/21 02:01:02;;;;;;;1.90;1.60;;;16.70;71.80;;;;;;5059117;28;20662;-77
2023/07/21 02:03:30;;;;;;;1.50;1.40;;;16.70;71.50;;;;;;5059529;28;20625;-77
2023/07/21 02:05:58;;;;;;;1.47;1.37;;;16.70;71.30;;;;;;5058429;28;20653;-77
2023/07/21 02:08:25;;;;;;;1.63;1.53;;;16.60;73.70;;;;;;5066652;28;20633;-76
2023/07/21 02:10:54;;;;;;;2.60;1.77;;;16.70;72.30;;;;;;5059554;28;21015;-77
2023/07/21 02:13:21;;;;;;;1.20;1.10;;;16.60;73.20;;;;;;5065990;28;20703;-77
2023/07/21 02:15:50;;;;;;;1.80;1.40;;;16.60;73.80;;;;;;5056451;28;21070;-77
2023/07/21 02:18:20;;;;;;;2.00;1.80;;;16.60;74.90;;;;;;5066021;28;20824;-76
2023/07/21 02:20:47;;;;;;;2.23;1.60;;;16.50;75.50;;;;;;5065615;28;20658;-77
2023/07/21 02:23:15;;;;;;;1.90;1.37;;;16.60;76.50;;;;;;5064685;28;20675;-76
2023/07/21 02:25:42;;;;;;;1.53;1.43;;;16.60;75.70;;;;;;5062912;28;20707;-77
2023/07/21 02:28:08;;;;;;;1.93;1.83;;;16.60;75.30;;;;;;5070087;28;20631;-77
2023/07/21 02:30:35;;;;;;;1.93;1.67;;;16.60;75.70;;;;;;5069242;28;21552;-77
2023/07/21 02:33:03;;;;;;;1.37;1.27;;;16.50;74.40;;;;;;5065267;28;20774;-77
2023/07/21 02:35:31;;;;;;;1.73;1.43;;;16.50;74.10;;;;;;5062736;28;20749;-77
2023/07/21 02:38:00;;;;;;;2.53;1.60;;;16.50;73.90;;;;;;5067204;28;21110;-77
2023/07/21 02:40:30;;;;;;;1.40;1.30;;;16.50;73.10;;;;;;5065774;28;21180;-77
2023/07/21 02:42:58;;;;;;;1.97;1.60;;;16.50;73.30;;;;;;5067501;28;21173;-77
2023/07/21 02:45:25;;;;;;;1.77;1.60;;;16.40;73.40;;;;;;5061101;28;20654;-77
2023/07/21 02:47:53;;;;;;;1.97;1.60;;;16.40;72.40;;;;;;5061550;28;20702;-77
2023/07/21 02:50:23;;;;;;;2.20;1.57;;;16.50;72.50;;;;;;5064321;28;20679;-77
2023/07/21 02:52:50;;;;;;;2.73;2.27;;;16.50;73.70;;;;;;5068460;28;20998;-77
2023/07/21 02:55:19;;;;;;;2.80;1.50;;;16.50;74.30;;;;;;5068660;28;20629;-77
2023/07/21 02:57:46;;;;;;;1.40;1.30;;;16.60;73.90;;;;;;5065025;28;20618;-77
2023/07/21 03:00:15;;;;;;;1.90;1.57;;;16.50;74.60;;;;;;5066050;28;21275;-76
2023/07/21 03:02:42;;;;;;;4.33;1.83;;;16.50;75.30;;;;;;5063818;28;20646;-77
2023/07/21 03:05:11;;;;;;;2.10;1.90;;;16.40;75.40;;;;;;5062033;28;20632;-77
2023/07/21 03:07:40;;;;;;;2.73;1.60;;;16.40;73.90;;;;;;5065545;28;20606;-77
2023/07/21 03:10:11;;;;;;;1.70;1.40;;;16.40;74.80;;;;;;5062216;28;20649;-76
2023/07/21 03:12:38;;;;;;;2.03;1.83;;;16.30;74.50;;;;;;5064443;28;20626;-77
2023/07/21 03:15:08;;;;;;;2.63;1.50;;;16.30;75.80;;;;;;5063091;28;20625;-77
2023/07/21 03:17:36;;;;;;;1.23;1.13;;;16.20;75.10;;;;;;5067484;28;20622;-77
2023/07/21 03:20:10;;;;;;;1.30;1.20;;;16.10;75.20;;;;;;5067932;28;20710;-76
2023/07/21 03:22:37;;;;;;;1.70;1.60;;;16.10;75.50;;;;;;5063820;28;20638;-77
2023/07/21 03:25:08;;;;;;;2.87;1.67;;;16.10;76.60;;;;;;5065238;28;20728;-77
2023/07/21 03:27:38;;;;;;;1.10;1.10;;;16.00;77.30;;;;;;5062610;28;20657;-78
2023/07/21 03:30:06;;;;;;;1.50;1.40;;;16.10;77.80;;;;;;5065449;28;20653;-77
2023/07/21 03:32:34;;;;;;;1.50;1.40;;;16.00;77.10;;;;;;5067203;28;20676;-78
2023/07/21 03:35:04;;;;;;;2.10;1.37;;;16.00;78.40;;;;;;5066363;28;20614;-77
2023/07/21 03:37:34;;;;;;;2.90;2.23;;;16.00;79.50;;;;;;5067592;28;20626;-78
2023/07/21 03:40:06;;;;;;;2.07;1.83;;;16.00;79.20;;;;;;5066715;28;20660;-79
2023/07/21 03:42:35;;;;;;;1.47;1.37;;;16.10;77.80;;;;;;5061287;28;20641;-77
2023/07/21 03:45:04;;;;;;;2.47;1.47;;;16.20;78.00;;;;;;5065904;28;20626;-77
2023/07/21 03:47:31;;;;;;;3.57;2.10;;;16.30;75.90;;;;;;5067946;28;21266;-77
2023/07/21 03:49:58;;;;;;;1.60;1.50;;;16.40;73.50;;;;;;5064606;28;20610;-77
2023/07/21 03:52:24;;;;;;;1.80;1.70;;;16.50;72.80;;;;;;5065179;28;20649;-77
2023/07/21 03:54:51;;;;;;;1.43;1.33;;;16.40;73.50;;;;;;5061978;28;20640;-77
2023/07/21 03:57:19;;;;;;;1.40;1.20;;;16.40;75.20;;;;;;5062463;28;21115;-78
2023/07/21 03:59:48;;;;;;;1.97;1.63;;;16.30;74.50;;;;;;5065041;28;21236;-80
2023/07/21 04:02:16;;;;;;;6.30;1.87;;;16.30;73.30;;;;;;5055701;28;20669;-77
2023/07/21 04:04:43;;;;;;;2.47;2.27;;;16.40;72.90;;;;;;5056380;28;20733;-77
2023/07/21 04:07:09;;;;;;;1.53;1.43;;;16.50;72.10;;;;;;5062662;28;20641;-78
2023/07/21 04:09:36;;;;;;;2.13;2.03;;;16.50;72.10;;;;;;5065234;28;20632;-77
2023/07/21 04:12:04;;;;;;;1.63;1.53;;;16.50;73.00;;;;;;5057084;28;20676;-77
2023/07/21 04:14:31;;;;;;;1.90;1.73;;;16.40;74.50;;;;;;5061953;28;20636;-77
2023/07/21 04:16:59;;;;;;;1.90;1.70;;;16.40;74.30;;;;;;5058628;28;20653;-77
2023/07/21 04:19:26;;;;;;;1.40;1.30;;;16.40;74.70;;;;;;5055707;28;20630;-78
2023/07/21 04:21:53;;;;;;;1.90;1.80;;;16.50;76.90;;;;;;5062398;28;21292;-76
2023/07/21 04:24:20;;;;;;;5.47;2.27;;;16.40;77.00;;;;;;5061594;28;20621;-79
2023/07/21 04:26:47;;;;;;;2.70;2.17;;;16.30;77.70;;;;;;5066865;28;20645;-77
2023/07/21 04:29:14;;;;;;;1.40;1.30;;;16.20;77.80;;;;;;5062926;28;20658;-76
2023/07/21 04:31:41;;;;;;;1.70;1.47;;;16.10;78.80;;;;;;5064378;28;20885;-77
2023/07/21 04:34:09;;;;;;;2.30;1.57;;;16.10;79.30;;;;;;5063763;28;21242;-78
2023/07/21 04:36:36;;;;;;;2.03;1.57;;;16.30;78.30;;;;;;5068054;28;20708;-78
2023/07/21 04:39:03;;;;;;;1.97;1.87;;;16.30;78.80;;;;;;5066566;28;20628;-77
2023/07/21 04:41:30;;;;;;;2.30;1.33;;;16.30;78.30;;;;;;5060301;28;20990;-75
2023/07/21 04:43:57;;;;;;;4.40;2.23;;;16.20;79.10;;;;;;5057784;28;20979;-77
2023/07/21 04:46:23;;;;;;;1.63;1.53;;;16.10;79.70;;;;;;5064499;28;20733;-74
2023/07/21 04:48:50;;;;;;;2.57;2.30;;;16.10;81.40;;;;;;5065379;28;20618;-74
2023/07/21 04:51:18;;;;;;;1.23;1.13;;;16.20;81.20;;;;;;5062144;28;20648;-74
2023/07/21 04:53:45;;;;;;;2.27;2.07;;;16.20;82.10;;;;;;5063187;28;20626;-74
2023/07/21 04:56:13;;;;;;;1.70;1.60;;;16.20;81.90;;;;;;5067187;28;20654;-76
2023/07/21 06:55:19;;;;;;;3.10;1.70;;;19.70;64.80;;;;;;5392474;23;20725;-77
2023/07/21 06:57:46;;;;;;;1.70;1.20;;;19.60;63.60;;;;;;4977012;28;20679;-76
2023/07/21 07:00:15;;;;;;;2.97;1.17;;;19.60;62.70;;;;;;4978804;28;20637;-76
2023/07/21 07:02:47;;;;;;;5.63;1.40;;;19.70;60.80;;;;;;4971271;28;20724;-76
2023/07/21 07:05:14;;;;;;;2.30;1.63;;;19.80;63.70;;;;;;4977217;28;20634;-76
2023/07/21 07:07:41;;;;;;;1.30;1.20;;;19.90;63.10;;;;;;4979614;28;21083;-76
2023/07/21 07:10:09;;;;;;;1.33;1.23;;;20.10;63.40;;;;;;4978555;28;20634;-76
2023/07/21 07:12:37;;;;;;;1.40;1.30;;;20.20;63.70;;;;;;4975019;28;20672;-77
2023/07/21 07:15:06;;;;;;;4.97;1.50;;;20.40;60.60;;;;;;4979388;28;20732;-76
2023/07/21 07:17:33;;;;;;;3.13;1.50;;;20.60;62.70;;;;;;4978690;28;21094;-76
2023/07/21 07:20:00;;;;;;;2.40;1.50;;;20.50;62.40;;;;;;4981185;28;20834;-77
2023/07/21 07:22:27;;;;;;;2.10;1.60;;;20.50;62.80;;;;;;4973727;28;21013;-76
2023/07/21 07:24:53;;;;;;;1.13;1.00;;;20.60;64.00;;;;;;4977634;28;20634;-77
2023/07/21 07:27:20;;;;;;;1.80;1.43;;;20.70;64.20;;;;;;4980663;28;20657;-77
2023/07/21 07:29:48;;;;;;;2.00;1.53;;;20.70;62.40;;;;;;4981337;28;20720;-76
2023/07/21 07:32:15;;;;;;;1.83;1.53;;;20.70;60.70;;;;;;4983428;28;21307;-77
2023/07/21 07:34:42;;;;;;;3.33;3.00;;;20.50;60.90;;;;;;4978924;28;20630;-77
2023/07/21 07:37:09;;;;;;;2.70;1.50;;;20.50;60.90;;;;;;4978143;28;20658;-73
2023/07/21 07:39:36;;;;;;;1.73;1.57;;;20.50;62.70;;;;;;4977219;28;20730;-73
2023/07/21 07:42:03;;;;;;;2.57;1.30;;;20.40;61.00;;;;;;4973224;28;20666;-73
2023/07/21 07:44:29;;;;;;;1.47;1.37;;;20.70;61.20;;;;;;4977719;28;20640;-72
2023/07/21 07:46:58;;;;;;;5.30;2.03;;;20.70;61.40;;;;;;4979052;28;21031;-72
2023/07/21 07:49:25;;;;;;;1.40;1.30;;;20.80;61.90;;;;;;4978101;28;20665;-72
2023/07/21 07:51:52;;;;;;;1.60;1.50;;;20.70;60.90;;;;;;4980516;28;20659;-72
2023/07/21 07:54:19;;;;;;;1.60;1.43;;;20.50;61.30;;;;;;4988972;28;20648;-73
2023/07/21 07:56:47;;;;;;;2.30;1.20;;;20.70;62.10;;;;;;4971035;28;20777;-72
2023/07/21 07:59:14;;;;;;;1.40;1.30;;;21.00;62.90;;;;;;4977405;28;20669;-73
2023/07/21 08:01:41;;;;;;;1.60;1.33;;;21.00;63.00;;;;;;4979364;28;20678;-73
2023/07/21 08:04:09;;;;;;;2.47;1.57;;;21.10;61.50;;;;;;4978521;28;21048;-74
2023/07/21 08:06:36;;;;;;;2.20;1.80;;;21.20;61.70;;;;;;4982510;28;20672;-73
2023/07/21 08:09:03;;;;;;;2.53;1.20;;;21.10;61.70;;;;;;4973395;28;20866;-72
2023/07/21 08:11:30;;;;;;;1.90;1.50;;;21.30;62.80;;;;;;4982807;28;21022;-73
2023/07/21 08:13:57;;;;;;;1.27;1.23;;;21.30;60.10;;;;;;4972054;28;20619;-72
2023/07/21 08:16:24;;;;;;;3.00;1.83;;;21.50;61.30;;;;;;4977392;28;20667;-72
2023/07/21 08:18:51;;;;;;;5.80;1.40;;;21.70;61.00;;;;;;4980194;28;20632;-72
2023/07/21 08:21:20;;;;;;;1.77;1.40;;;21.70;59.80;;;;;;4979693;28;20676;-73
2023/07/21 08:23:47;;;;;;;2.50;1.67;;;21.60;59.20;;;;;;4983099;28;20737;-73
2023/07/21 08:26:14;;;;;;;3.03;1.47;;;21.70;59.40;;;;;;4973209;28;21093;-73
2023/07/21 08:28:41;;;;;;;1.87;1.50;;;21.80;60.40;;;;;;4979725;28;20632;-76
2023/07/21 08:31:09;;;;;;;1.53;1.10;;;21.60;59.40;;;;;;4974122;28;20758;-75
2023/07/21 08:33:35;;;;;;;1.80;1.63;;;21.70;59.50;;;;;;4976148;28;20633;-74
2023/07/21 08:36:02;;;;;;;1.73;1.63;;;21.70;59.60;;;;;;4979905;28;20670;-75
2023/07/21 08:38:30;;;;;;;1.40;1.30;;;21.90;59.50;;;;;;4977706;28;20943;-74
2023/07/21 08:41:03;;;;;;;1.77;1.43;;;22.10;59.10;;;;;;4975084;28;20683;-74
2023/07/21 08:43:31;;;;;;;2.30;1.67;;;22.00;59.10;;;;;;4980704;28;20678;-75
2023/07/21 08:46:00;;;;;;;1.50;1.40;;;21.80;58.10;;;;;;4975561;28;20713;-75
2023/07/21 08:48:28;;;;;;;1.60;1.50;;;21.90;58.40;;;;;;4973948;28;21320;-75
2023/07/21 08:50:55;;;;;;;1.47;1.27;;;22.00;58.40;;;;;;4976543;28;20986;-75
2023/07/21 08:53:24;;;;;;;2.40;1.50;;;22.20;59.30;;;;;;4975065;28;20631;-75
2023/07/21 08:55:54;;;;;;;1.47;1.37;;;22.30;58.90;;;;;;4981323;28;20674;-75
2023/07/21 08:58:22;;;;;;;1.70;1.60;;;22.40;58.00;;;;;;4975238;28;20631;-75
2023/07/21 09:00:49;;;;;;;3.73;1.30;;;22.50;56.80;;;;;;4978240;28;20662;-76
2023/07/21 09:03:22;;;;;;;2.33;1.83;;;22.50;55.80;;;;;;4978263;28;20669;-75
2023/07/21 09:05:50;;;;;;;3.30;1.50;;;22.90;56.60;;;;;;4976075;28;21243;-73
2023/07/21 09:08:21;;;;;;;1.37;1.10;;;23.30;55.90;;;;;;4975990;28;20659;-73
2023/07/21 09:10:48;;;;;;;1.80;1.30;;;23.50;56.40;;;;;;4976657;28;20656;-73
2023/07/21 09:13:17;;;;;;;2.10;1.53;;;23.70;56.20;;;;;;4977037;28;20994;-73
2023/07/21 09:15:52;;;;;;;1.77;1.60;;;23.50;55.80;;;;;;4976617;28;20763;-73
2023/07/21 09:18:19;;;;;;;1.87;1.43;;;23.50;55.90;;;;;;4982306;28;21186;-73
2023/07/21 09:20:47;;;;;;;1.40;1.30;;;23.40;54.00;;;;;;4971524;28;20664;-73
2023/07/21 09:23:14;;;;;;;1.53;1.43;;;23.40;55.60;;;;;;4983287;28;21046;-73
2023/07/21 09:25:49;;;;;;;1.40;1.30;;;23.70;55.40;;;;;;4979509;28;20765;-73
2023/07/21 09:28:17;;;;;;;1.23;1.13;;;24.00;54.10;;;;;;4983734;28;20764;-73
2023/07/21 09:30:50;;;;;;;1.37;1.30;;;23.80;53.10;;;;;;4978476;28;21682;-73
2023/07/21 09:33:22;;;;;;;1.93;1.27;;;23.50;54.30;;;;;;4979959;28;20629;-73
2023/07/21 09:35:49;;;;;;;1.43;1.33;;;23.40;55.00;;;;;;4976302;28;20669;-74
2023/07/21 09:38:16;;;;;;;1.10;1.00;;;23.30;54.60;;;;;;4980159;28;20663;-74
2023/07/21 09:40:43;;;;;;;1.33;1.23;;;23.40;54.40;;;;;;4976575;28;21288;-74
2023/07/21 09:43:10;;;;;;;1.70;1.60;;;23.50;53.90;;;;;;4972997;28;20696;-74
2023/07/21 09:45:39;;;;;;;2.23;1.53;;;24.00;54.00;;;;;;4976659;28;20667;-74
2023/07/21 09:48:06;;;;;;;1.70;1.13;;;24.40;53.10;;;;;;4979527;28;21019;-74
2023/07/21 09:50:33;;;;;;;1.40;1.30;;;24.30;52.00;;;;;;4982756;28;20687;-74
2023/07/21 09:53:03;;;;;;;1.10;1.10;;;24.50;52.00;;;;;;4974816;28;20631;-75
2023/07/21 09:55:41;;;;;;;1.50;1.33;;;24.60;53.60;;;;;;4981838;28;20682;-75
2023/07/21 09:58:10;;;;;;;2.17;1.97;;;24.60;50.50;;;;;;4976918;28;20629;-75
2023/07/21 10:00:40;;;;;;;1.00;1.00;;;24.70;51.60;;;;;;4975511;28;20660;-75
2023/07/21 10:03:08;;;;;;;1.33;1.23;;;25.00;51.90;;;;;;4974062;28;20682;-75
2023/07/21 10:05:38;;;;;;;1.27;1.17;;;25.00;50.50;;;;;;4980251;28;20658;-73
2023/07/21 10:08:09;;;;;;;1.37;1.27;;;24.80;50.90;;;;;;4970605;28;21035;-76
2023/07/21 10:10:38;;;;;;;2.47;1.30;;;24.70;51.60;;;;;;4972608;28;20689;-75
2023/07/21 10:13:07;;;;;;;1.53;1.40;;;24.50;51.10;;;;;;4975951;28;20628;-75
2023/07/21 10:15:35;;;;;;;8.47;1.70;;;24.60;51.30;;;;;;4974684;28;20661;-76
2023/07/21 10:18:06;;;;;;;2.63;1.50;;;24.80;51.10;;;;;;4975549;28;20629;-75
2023/07/21 10:20:41;;;;;;;1.60;1.10;;;25.00;51.10;;;;;;4976578;28;20642;-75
2023/07/21 10:23:09;;;;;;;1.07;0.87;;;24.70;51.30;;;;;;4975133;28;21250;-76
2023/07/21 10:26:00;;;;;;;1.20;1.10;;;24.90;50.50;;;;;;4972758;28;21001;-75
2023/07/21 10:28:37;;;;;;;1.20;1.10;;;25.00;50.30;;;;;;4964902;28;20630;-76
2023/07/21 10:31:32;;;;;;;2.63;1.50;;;24.80;50.20;;;;;;4973927;28;20790;-76
2023/07/21 10:34:04;;;;;;;1.53;1.43;;;24.30;50.60;;;;;;4975534;28;20634;-76
2023/07/21 10:36:40;;;;;;;1.50;1.40;;;24.30;51.10;;;;;;4975278;28;20671;-76
2023/07/21 10:39:10;;;;;;;1.20;1.10;;;24.30;51.00;;;;;;4981991;28;20634;-76
2023/07/21 10:41:37;;;;;;;1.10;1.00;;;24.20;52.20;;;;;;4977382;28;20883;-76
2023/07/21 10:44:06;;;;;;;2.77;1.47;;;24.50;51.60;;;;;;4976275;28;20712;-76
2023/07/21 10:46:37;;;;;;;1.43;1.33;;;24.70;51.40;;;;;;4975841;28;20659;-76
2023/07/21 10:49:06;;;;;;;1.30;1.20;;;25.20;51.70;;;;;;4972634;28;20636;-76
2023/07/21 10:51:32;;;;;;;1.57;1.07;;;25.50;49.90;;;;;;4979676;28;20652;-76
2023/07/21 10:53:59;;;;;;;1.10;1.00;;;25.60;49.50;;;;;;4979473;28;20639;-76
2023/07/21 10:56:27;;;;;;;3.60;1.40;;;25.70;50.60;;;;;;4979359;28;21244;-76
2023/07/21 10:58:54;;;;;;;1.20;1.10;;;26.00;50.00;;;;;;4974455;28;20643;-76
2023/07/21 11:01:21;;;;;;;1.43;1.17;;;26.20;47.80;;;;;;4982709;28;20691;-76
2023/07/21 11:03:48;;;;;;;1.73;1.50;;;26.30;49.00;;;;;;4976916;28;21020;-76
2023/07/21 11:06:17;;;;;;;1.70;1.60;;;26.20;48.40;;;;;;4981944;28;20667;-78
2023/07/21 11:08:44;;;;;;;1.60;1.50;;;25.90;47.20;;;;;;4977590;28;21573;-76
2023/07/21 11:11:12;;;;;;;3.13;1.27;;;25.90;48.20;;;;;;4980355;28;20653;-77
2023/07/21 11:13:39;;;;;;;1.33;1.23;;;26.00;46.90;;;;;;4979326;28;20640;-77
2023/07/21 11:16:06;;;;;;;1.57;1.33;;;26.50;48.40;;;;;;4979679;28;20662;-78
2023/07/21 11:18:33;;;;;;;3.73;1.50;;;26.60;47.70;;;;;;4987183;28;20634;-77
2023/07/21 11:21:00;;;;;;;2.07;1.80;;;26.10;47.20;;;;;;4980701;28;20655;-77
2023/07/21 11:23:28;;;;;;;2.40;1.10;;;26.10;47.60;;;;;;4982563;28;21238;-76
2023/07/21 11:26:07;;;;;;;1.60;1.07;;;26.30;47.00;;;;;;4979215;28;20759;-77
2023/07/21 11:28:34;;;;;;;1.43;1.33;;;26.20;46.30;;;;;;4975315;28;21184;-77
2023/07/21 11:31:02;;;;;;;1.43;1.33;;;26.10;46.60;;;;;;4980339;28;20649;-77
2023/07/21 11:33:45;;;;;;;1.33;1.23;;;25.80;46.50;;;;;;4978066;28;20723;-77
2023/07/21 11:36:14;;;;;;;2.20;1.50;;;25.40;48.10;;;;;;4973969;28;20671;-77
2023/07/21 11:38:42;;;;;;;2.03;1.13;;;25.20;47.70;;;;;;4978652;28;20633;-77
2023/07/21 11:41:09;;;;;;;2.47;1.50;;;25.10;48.60;;;;;;4983819;28;20657;-77
2023/07/21 11:43:48;;;;;;;5.90;1.93;;;24.80;49.90;;;;;;4975948;28;20678;-78
2023/07/21 11:46:23;;;;;;;3.00;1.50;;;24.70;49.50;;;;;;4977813;28;20662;-77
2023/07/21 11:48:50;;;;;;;1.40;1.30;;;24.40;50.40;;;;;;4975665;28;20670;-77
2023/07/21 11:51:17;;;;;;;1.97;1.77;;;24.10;50.70;;;;;;4980958;28;20666;-77
2023/07/21 11:53:49;;;;;;;1.60;1.50;;;23.80;49.60;;;;;;4980720;28;20741;-77
2023/07/21 11:56:16;;;;;;;1.13;1.03;;;23.60;50.10;;;;;;4978800;28;20655;-76
2023/07/21 11:58:43;;;;;;;2.13;1.43;;;23.50;51.10;;;;;;4983718;28;21000;-77
2023/07/21 12:01:10;;;;;;;4.20;1.50;;;23.50;52.80;;;;;;4974314;28;21213;-77
2023/07/21 12:03:38;;;;;;;5.00;1.50;;;23.40;52.20;;;;;;4978123;28;20673;-75
2023/07/21 12:06:09;;;;;;;1.80;1.63;;;23.20;53.60;;;;;;4979354;28;20676;-74
2023/07/21 12:08:36;;;;;;;1.30;1.17;;;23.00;55.10;;;;;;4976471;28;20664;-75
2023/07/21 12:11:04;;;;;;;2.67;1.90;;;22.60;59.50;;;;;;4971483;28;20713;-74
2023/07/21 12:13:31;;;;;;;3.13;1.80;;;22.10;63.80;;;;;;4985609;28;20706;-75
2023/07/21 12:15:58;;;;;;;1.40;1.30;;;21.50;67.90;;;;;;4988478;28;21239;-75
2023/07/21 12:18:25;;;;;;;1.53;1.20;;;21.20;74.70;;;;;;4976722;28;20639;-74
2023/07/21 12:20:52;;;;;;;1.73;1.63;;;21.10;75.90;;;;;;4973237;28;20662;-74
2023/07/21 12:23:19;;;;;;;1.70;1.60;;;21.20;83.70;;;;;;4986001;28;21261;-75
2023/07/21 12:25:45;;;;;;;1.67;1.57;;;21.40;86.60;;;;;;4975235;28;20682;-75
2023/07/21 12:28:14;;;;;;;2.03;1.40;;;21.70;77.80;;;;;;4971679;28;20705;-75
2023/07/21 12:30:40;;;;;;;1.40;1.30;;;21.70;83.60;;;;;;4978831;28;20673;-74
2023/07/21 12:33:07;;;;;;;2.07;1.87;;;21.50;88.70;;;;;;4978622;28;20640;-74
2023/07/21 12:35:34;;;;;;;1.40;1.30;;;21.40;85.70;;;;;;4979078;28;20647;-74
2023/07/21 12:38:01;;;;;;;2.50;2.30;;;21.50;79.00;;;;;;4975618;28;21236;-78
2023/07/21 12:40:28;;;;;;;2.03;1.87;;;21.60;81.00;;;;;;4977569;28;20670;-77
2023/07/21 12:42:59;;;;;;;4.17;1.97;;;21.70;84.20;;;;;;4979582;28;20657;-76
2023/07/21 12:45:27;;;;;;;1.40;1.30;;;21.70;86.80;;;;;;4983762;28;20663;-76
2023/07/21 12:47:54;;;;;;;1.40;1.30;;;21.80;85.80;;;;;;4977386;28;20676;-75
2023/07/21 12:50:21;;;;;;;1.40;1.30;;;21.90;83.60;;;;;;4978575;28;20636;-75
2023/07/21 12:52:48;;;;;;;4.47;1.70;;;21.80;87.30;;;;;;4977717;28;21036;-76
2023/07/21 12:55:15;;;;;;;2.30;1.70;;;21.40;87.70;;;;;;4979844;28;21020;-75
2023/07/21 12:57:42;;;;;;;2.50;1.43;;;21.00;86.40;;;;;;4979022;28;20659;-75
2023/07/21 13:00:11;;;;;;;1.40;1.30;;;20.70;84.80;;;;;;4970977;28;20639;-75
2023/07/21 13:02:39;;;;;;;1.70;1.60;;;20.50;90.00;;;;;;4980591;28;21017;-75
2023/07/21 13:05:07;;;;;;;1.30;1.20;;;20.60;90.20;;;;;;4977186;28;21194;-75
2023/07/21 13:07:35;;;;;;;2.00;1.83;;;20.60;91.20;;;;;;4977064;28;20647;-75
2023/07/21 13:10:02;;;;;;;3.27;2.27;;;20.70;88.40;;;;;;4977599;28;20634;-75
2023/07/21 13:12:28;;;;;;;2.40;2.20;;;20.80;86.80;;;;;;4979771;28;20743;-75
2023/07/21 13:14:55;;;;;;;2.00;1.90;;;20.70;80.20;;;;;;4978253;28;20630;-75
2023/07/21 13:17:22;;;;;;;2.93;1.90;;;21.00;86.00;;;;;;4977024;28;20666;-75
2023/07/21 13:19:50;;;;;;;1.57;1.47;;;21.00;84.10;;;;;;4976131;28;20631;-75
2023/07/21 13:22:17;;;;;;;1.77;1.67;;;21.10;83.10;;;;;;4981941;28;20653;-75
2023/07/21 13:24:44;;;;;;;1.43;1.33;;;21.00;78.00;;;;;;4983374;28;21143;-75
2023/07/21 13:27:10;;;;;;;3.50;1.67;;;21.00;77.00;;;;;;4977848;28;20648;-75
2023/07/21 13:29:39;;;;;;;1.73;1.63;;;20.90;77.20;;;;;;4984227;28;20635;-75
2023/07/21 13:32:06;;;;;;;1.50;1.40;;;20.70;73.20;;;;;;4976467;28;21089;-74
2023/07/21 13:34:33;;;;;;;2.13;1.30;;;20.80;75.10;;;;;;4976497;28;21252;-74
2023/07/21 13:37:01;;;;;;;3.30;1.70;;;21.10;71.10;;;;;;4977037;28;20676;-74
2023/07/21 13:39:28;;;;;;;5.30;2.10;;;21.00;69.50;;;;;;4977133;28;20640;-74
2023/07/21 13:41:55;;;;;;;1.57;1.47;;;21.20;70.30;;;;;;4980477;28;20773;-74
2023/07/21 13:44:22;;;;;;;1.30;1.20;;;21.20;68.40;;;;;;4980112;28;20658;-74
2023/07/21 13:46:49;;;;;;;1.50;1.40;;;21.20;68.30;;;;;;4976406;28;20655;-75
2023/07/21 13:49:19;;;;;;;1.27;1.20;;;21.10;67.20;;;;;;4981101;28;20636;-75
2023/07/21 13:51:45;;;;;;;1.63;1.40;;;21.50;68.80;;;;;;4978649;28;21300;-75
2023/07/21 13:54:14;;;;;;;1.87;1.63;;;21.60;69.50;;;;;;4975117;28;20644;-75
2023/07/21 13:56:40;;;;;;;1.63;1.53;;;21.20;67.60;;;;;;4976609;28;20660;-75
2023/07/21 13:59:07;;;;;;;1.63;1.30;;;21.00;69.20;;;;;;4979312;28;20633;-75
2023/07/21 14:01:34;;;;;;;1.80;1.70;;;21.10;70.30;;;;;;4979658;28;20713;-75
2023/07/21 14:04:01;;;;;;;2.70;1.40;;;20.90;68.60;;;;;;4977732;28;20672;-75
2023/07/21 14:06:27;;;;;;;2.03;1.03;;;20.90;70.00;;;;;;4976295;28;20669;-75
2023/07/21 14:08:54;;;;;;;0.90;0.90;;;20.70;70.70;;;;;;4979043;28;21267;-74
2023/07/21 14:11:22;;;;;;;1.53;1.43;;;20.50;71.10;;;;;;4975507;28;20649;-75
2023/07/21 14:13:49;;;;;;;2.50;2.00;;;20.10;70.50;;;;;;4979203;28;20631;-75
2023/07/21 14:16:16;;;;;;;5.20;1.63;;;20.00;70.70;;;;;;4981582;28;20797;-74
2023/07/21 14:18:43;;;;;;;1.40;1.30;;;19.70;70.40;;;;;;4976757;28;20812;-75
2023/07/21 14:21:10;;;;;;;4.07;1.70;;;19.50;74.10;;;;;;4977671;28;20707;-75
2023/07/21 14:23:36;;;;;;;3.07;1.53;;;19.60;79.50;;;;;;4983083;28;21067;-75
2023/07/21 14:26:04;;;;;;;1.77;1.67;;;19.00;78.50;;;;;;4982296;28;21270;-74
2023/07/21 14:28:32;;;;;;;1.40;1.30;;;18.90;79.40;;;;;;4978879;28;20636;-75
2023/07/21 14:30:59;;;;;;;1.30;1.20;;;18.80;78.70;;;;;;4981014;28;21140;-75
2023/07/21 14:33:25;;;;;;;2.93;1.37;;;18.80;78.90;;;;;;4981615;28;20665;-75
2023/07/21 14:35:52;;;;;;;1.60;1.43;;;18.80;76.00;;;;;;4983202;28;20656;-75
2023/07/21 14:38:20;;;;;;;1.50;1.07;;;18.70;75.40;;;;;;4982778;28;20729;-75
2023/07/21 14:40:47;;;;;;;1.30;1.07;;;18.40;76.40;;;;;;4982238;28;20655;-75
2023/07/21 14:43:14;;;;;;;1.50;1.27;;;18.50;76.60;;;;;;4988394;28;20629;-75
2023/07/21 14:45:43;;;;;;;0.90;0.90;;;18.40;77.70;;;;;;4981102;28;20668;-75
2023/07/21 14:48:10;;;;;;;1.13;1.03;;;18.10;80.60;;;;;;4975934;28;20705;-75
2023/07/21 14:50:37;;;;;;;1.73;1.50;;;17.90;82.70;;;;;;4979994;28;21136;-75